This is the latest recevied weather packets stored in our database for station/object N8WEL. If no packets are shown the sender has not sent any weather packets the latest 1 day(s).
| Time | Temp. | Humidity | Pressure | Rain* | Wind** | Luminosity | Snow |
|---|---|---|---|---|---|---|---|
| 1777988516 | 14.44° C | 93% | 1006.9 hPa | 0 mm | 0.45 m/s, 198° | - | - |
| 1777988127 | 14.44° C | 94% | 1006.8 hPa | 0 mm | 0.89 m/s, 175° | - | - |
| 1777987528 | 13.89° C | 95% | 1006.7 hPa | 0 mm | 0.89 m/s, 178° | - | - |
| 1777987188 | 13.89° C | 95% | 1006.9 hPa | 0 mm | 0.45 m/s, 188° | - | - |
| 1777986918 | 13.89° C | 96% | 1006.8 hPa | 0.25 mm | 0 m/s | - | - |
| 1777986861 | 13.89° C | 96% | 1006.9 hPa | 0.25 mm | 0.45 m/s, 177° | - | - |
| 1777986467 | 13.33° C | 96% | 1006.9 hPa | 0.25 mm | 0.45 m/s, 194° | - | - |
| 1777985495 | 13.33° C | 96% | 1006.8 hPa | 0.25 mm | 0.45 m/s, 181° | - | - |
| 1777985242 | 13.33° C | 96% | 1006.9 hPa | 0.25 mm | 0 m/s | - | - |
| 1777984891 | 13.33° C | 96% | 1006.9 hPa | 0.25 mm | 0 m/s | - | - |
| 1777984607 | 13.33° C | 96% | 1006.8 hPa | 0.25 mm | 1.34 m/s, 186° | - | - |
| 1777984290 | 13.33° C | 96% | 1006.8 hPa | 0.25 mm | 0.45 m/s, 179° | - | - |
| 1777983990 | 13.33° C | 96% | 1006.8 hPa | 0.25 mm | 0.45 m/s, 176° | - | - |
| 1777983721 | 13.33° C | 96% | 1006.8 hPa | 0.25 mm | 0.89 m/s, 174° | - | - |
| 1777983393 | 13.33° C | 96% | 1006.7 hPa | 0 mm | 1.34 m/s, 175° | - | - |
| 1777983142 | 13.33° C | 96% | 1006.9 hPa | 0 mm | 0.45 m/s, 172° | - | - |
| 1777983141 | 12.78° C | 96% | 1006.8 hPa | 0 mm | 0 m/s | - | - |
| 1777983140 | 12.78° C | 96% | 1006.4 hPa | 0 mm | 0.45 m/s, 161° | - | - |
| 1777982211 | 12.78° C | 96% | 1006.4 hPa | 0 mm | 0.45 m/s, 198° | - | - |
| 1777982036 | 12.78° C | 96% | 1006.2 hPa | 0 mm | 0.45 m/s, 176° | - | - |
| 1777982036 | 12.78° C | 96% | 1005.9 hPa | 0 mm | 0 m/s | - | - |
| 1777977025 | 12.78° C | 95% | 1006.6 hPa | 0.76 mm | 0 m/s | - | - |
| 1777976642 | 12.78° C | 94% | 1006.7 hPa | 1.27 mm | 0 m/s | - | - |
| 1777976642 | 12.78° C | 93% | 1007 hPa | 1.27 mm | 0 m/s | - | - |
| 1777976641 | 13.33° C | 92% | 1007.2 hPa | 1.27 mm | 0.45 m/s, 240° | - | - |
* Rain latest hour (hover to see other rain measurements)
** Current wind speed in m/s (hover to see current wind gust speed)